Time;durP1;ratioP1;P1;durP2;ratioP2;P2;SDS_P1;SDS_P2;PMS_P1;PMS_P2;Temp;Humidity;BMP_temperature;BMP_pressure;BME280_temperature;BME280_humidity;BME280_pressure;Samples;Min_cycle;Max_cycle;Signal;HPM_P1;HPM_P2
2021/11/11 00:00:56;;;;;;;125.27;27.80;;;2.20;99.90;;;;;;5114767;28;20074;-70
2021/11/11 00:03:23;;;;;;;122.10;27.80;;;2.10;99.90;;;;;;5115131;28;20093;-69
2021/11/11 00:05:50;;;;;;;311.20;34.90;;;2.20;99.90;;;;;;5113823;28;20536;-69
2021/11/11 00:08:18;;;;;;;388.93;42.13;;;2.20;99.90;;;;;;5114038;28;20051;-69
2021/11/11 00:10:47;;;;;;;125.73;29.03;;;2.00;99.90;;;;;;5115894;28;20089;-70
2021/11/11 00:13:14;;;;;;;87.40;24.40;;;2.10;99.90;;;;;;5113754;27;20055;-69
2021/11/11 00:15:41;;;;;;;150.70;29.67;;;2.20;99.90;;;;;;5114091;28;20511;-70
2021/11/11 00:18:09;;;;;;;290.67;35.37;;;2.20;99.90;;;;;;5114965;28;20088;-69
2021/11/11 00:20:36;;;;;;;109.63;28.10;;;2.10;99.90;;;;;;5114597;27;20166;-69
2021/11/11 00:23:03;;;;;;;89.60;24.73;;;2.10;99.90;;;;;;5118720;27;20167;-69
2021/11/11 00:25:30;;;;;;;135.63;27.67;;;2.20;99.90;;;;;;5117554;27;20099;-69
2021/11/11 00:27:59;;;;;;;212.00;31.87;;;2.30;99.90;;;;;;5117903;27;20055;-69
2021/11/11 00:30:27;;;;;;;272.00;33.50;;;2.20;99.90;;;;;;5118328;27;21089;-69
2021/11/11 00:32:54;;;;;;;169.17;30.37;;;2.10;99.90;;;;;;5119403;27;20047;-69
2021/11/11 00:35:23;;;;;;;265.27;33.40;;;2.10;99.90;;;;;;5118139;27;20468;-69
2021/11/11 00:37:51;;;;;;;182.73;29.07;;;2.00;99.90;;;;;;5119045;27;20468;-69
2021/11/11 00:40:18;;;;;;;118.40;25.80;;;2.00;99.90;;;;;;5119011;27;20090;-69
2021/11/11 00:42:48;;;;;;;166.53;31.87;;;2.10;99.90;;;;;;5118712;27;20075;-69
2021/11/11 00:45:17;;;;;;;304.47;35.97;;;2.10;99.90;;;;;;5118740;27;20063;-69
2021/11/11 00:47:44;;;;;;;122.07;26.13;;;2.00;99.90;;;;;;5119179;27;20539;-69
2021/11/11 00:50:13;;;;;;;173.17;28.77;;;2.10;99.90;;;;;;5119312;27;20054;-69
2021/11/11 00:52:40;;;;;;;172.60;30.53;;;2.10;99.90;;;;;;5119565;27;20067;-69
2021/11/11 00:55:10;;;;;;;120.63;27.20;;;2.10;99.90;;;;;;5118123;27;20039;-69
2021/11/11 00:57:37;;;;;;;130.83;30.27;;;2.10;99.90;;;;;;5119075;27;20494;-69
2021/11/11 01:00:06;;;;;;;164.60;26.60;;;2.10;99.90;;;;;;5118748;27;20058;-70
2021/11/11 01:02:36;;;;;;;127.90;27.60;;;2.20;99.90;;;;;;5120481;27;20070;-69
2021/11/11 01:05:04;;;;;;;121.77;25.40;;;2.20;99.90;;;;;;5120019;27;20067;-69
2021/11/11 01:07:31;;;;;;;80.47;24.27;;;2.20;99.90;;;;;;5119900;27;20578;-69
2021/11/11 01:09:58;;;;;;;107.40;25.37;;;2.20;99.90;;;;;;5120236;27;20486;-69
2021/11/11 01:12:25;;;;;;;154.10;28.43;;;2.20;99.90;;;;;;5119235;27;20138;-70
2021/11/11 01:14:52;;;;;;;272.00;34.53;;;2.00;99.90;;;;;;5117373;27;20069;-69
2021/11/11 01:17:19;;;;;;;154.63;27.53;;;2.00;99.90;;;;;;5116666;27;20043;-70
2021/11/11 01:19:47;;;;;;;172.73;34.40;;;2.00;99.90;;;;;;5117809;27;20054;-69
2021/11/11 01:22:16;;;;;;;259.73;34.70;;;2.00;99.90;;;;;;5117864;27;20079;-69
2021/11/11 01:24:43;;;;;;;176.07;29.30;;;2.00;99.90;;;;;;5121065;27;20043;-69
2021/11/11 01:27:10;;;;;;;85.10;25.70;;;1.90;99.90;;;;;;5120089;27;20051;-69
2021/11/11 01:29:37;;;;;;;326.40;34.23;;;2.00;99.90;;;;;;5120533;27;20132;-70
2021/11/11 01:32:05;;;;;;;398.07;42.17;;;1.90;99.90;;;;;;5119731;27;20104;-72
2021/11/11 01:34:32;;;;;;;167.73;28.83;;;1.80;99.90;;;;;;5119677;27;20082;-69
2021/11/11 01:37:00;;;;;;;276.37;31.80;;;1.90;99.90;;;;;;5116766;27;20432;-69
2021/11/11 01:39:27;;;;;;;278.00;35.17;;;2.00;99.90;;;;;;5117532;27;20100;-69
2021/11/11 01:41:54;;;;;;;160.63;30.67;;;2.10;99.90;;;;;;5118220;27;20501;-70
2021/11/11 01:44:22;;;;;;;249.10;32.37;;;2.20;99.90;;;;;;5117395;27;20135;-69
2021/11/11 01:46:49;;;;;;;279.97;33.87;;;2.10;99.90;;;;;;5116281;27;20139;-69
2021/11/11 01:49:16;;;;;;;303.53;32.93;;;2.00;99.90;;;;;;5117001;27;20039;-69
2021/11/11 01:51:46;;;;;;;270.90;35.40;;;1.80;99.90;;;;;;5117119;27;20111;-69
2021/11/11 01:54:15;;;;;;;311.80;35.40;;;1.70;99.90;;;;;;5117064;27;20514;-69
2021/11/11 01:56:43;;;;;;;235.77;33.13;;;1.70;99.90;;;;;;5116828;27;20047;-69
2021/11/11 01:59:10;;;;;;;307.87;34.50;;;1.70;99.90;;;;;;5117640;27;20119;-73
2021/11/11 02:01:37;;;;;;;372.50;36.37;;;1.60;99.90;;;;;;5116387;27;20104;-69
2021/11/11 02:04:05;;;;;;;304.80;34.23;;;1.70;99.90;;;;;;5117188;27;20051;-69
2021/11/11 02:06:32;;;;;;;321.70;33.07;;;1.50;99.90;;;;;;5116942;27;20625;-69
2021/11/11 02:08:59;;;;;;;186.90;27.53;;;1.50;99.90;;;;;;5116932;27;20055;-69
2021/11/11 02:11:28;;;;;;;273.50;32.50;;;1.60;99.90;;;;;;5116910;27;20055;-69
2021/11/11 02:13:55;;;;;;;128.97;25.80;;;1.60;99.90;;;;;;5116934;27;20082;-69
2021/11/11 02:16:22;;;;;;;214.37;26.17;;;1.80;99.90;;;;;;5117555;27;20142;-69
2021/11/11 02:18:49;;;;;;;78.87;20.93;;;1.70;99.90;;;;;;5120272;27;20043;-69
2021/11/11 02:21:17;;;;;;;100.63;21.70;;;1.80;99.90;;;;;;5119536;27;20073;-69
2021/11/11 02:23:45;;;;;;;110.53;22.67;;;1.80;99.90;;;;;;5120160;27;20411;-69
2021/11/11 02:26:12;;;;;;;177.70;27.67;;;1.70;99.90;;;;;;5119628;27;20088;-70
2021/11/11 02:28:39;;;;;;;118.23;23.13;;;1.90;99.90;;;;;;5118849;27;20088;-69
2021/11/11 02:31:06;;;;;;;215.83;30.03;;;1.90;99.90;;;;;;5116270;27;20047;-69
2021/11/11 02:33:33;;;;;;;145.73;25.73;;;1.80;99.90;;;;;;5116062;27;20564;-71
2021/11/11 02:36:00;;;;;;;135.53;27.43;;;1.80;99.90;;;;;;5116521;27;20490;-69
2021/11/11 02:38:29;;;;;;;102.10;24.53;;;1.90;99.90;;;;;;5117048;27;20119;-69
2021/11/11 02:40:57;;;;;;;125.20;28.30;;;1.90;99.90;;;;;;5116909;27;20077;-69
2021/11/11 02:43:28;;;;;;;72.10;24.13;;;1.90;99.90;;;;;;5116938;27;20051;-70
2021/11/11 02:45:56;;;;;;;115.57;24.73;;;1.90;99.90;;;;;;5119514;27;20404;-69
2021/11/11 02:48:24;;;;;;;75.63;22.80;;;1.90;99.90;;;;;;5119641;27;20875;-67
2021/11/11 02:50:52;;;;;;;188.00;27.40;;;1.90;99.90;;;;;;5119252;27;20145;-68
2021/11/11 02:53:19;;;;;;;281.07;29.93;;;1.70;99.90;;;;;;5119409;27;20043;-69
2021/11/11 02:55:48;;;;;;;271.17;31.13;;;1.50;99.90;;;;;;5118080;27;20043;-68
2021/11/11 02:58:15;;;;;;;199.20;26.77;;;1.60;99.90;;;;;;5119879;27;20050;-68
2021/11/11 03:00:50;;;;;;;148.13;25.60;;;1.60;99.90;;;;;;5116819;27;20456;-68
2021/11/11 03:03:17;;;;;;;159.43;29.90;;;1.70;99.90;;;;;;5116042;27;20141;-69
2021/11/11 03:05:45;;;;;;;195.20;25.23;;;1.60;99.90;;;;;;5114511;27;20568;-68
2021/11/11 03:08:13;;;;;;;105.33;22.20;;;1.70;99.90;;;;;;5114779;27;20066;-68
2021/11/11 03:10:42;;;;;;;83.03;22.87;;;1.70;99.90;;;;;;5115218;27;20039;-68
2021/11/11 03:13:12;;;;;;;126.37;22.27;;;1.80;99.90;;;;;;5115157;27;20055;-69
2021/11/11 03:15:41;;;;;;;86.57;21.53;;;1.80;99.90;;;;;;5115820;27;20071;-68
2021/11/11 03:18:08;;;;;;;161.03;26.63;;;1.80;99.90;;;;;;5115260;27;20141;-68
2021/11/11 03:20:35;;;;;;;179.73;24.73;;;1.60;99.90;;;;;;5114946;27;20100;-69
2021/11/11 03:23:04;;;;;;;305.07;40.47;;;1.50;99.90;;;;;;5115791;27;20047;-70
2021/11/11 03:25:33;;;;;;;101.20;22.27;;;1.40;99.90;;;;;;5115301;27;20058;-73
2021/11/11 03:28:01;;;;;;;181.33;29.03;;;1.50;99.90;;;;;;5115816;27;20052;-72
2021/11/11 03:30:29;;;;;;;112.93;19.70;;;1.60;99.90;;;;;;5115076;27;20128;-71
2021/11/11 03:32:58;;;;;;;269.23;28.63;;;1.60;99.90;;;;;;5115956;27;20058;-73
2021/11/11 03:35:25;;;;;;;325.57;34.57;;;1.60;99.90;;;;;;5116143;28;20124;-71
2021/11/11 03:37:53;;;;;;;232.40;30.50;;;1.20;99.90;;;;;;5118698;28;20941;-72
2021/11/11 03:40:23;;;;;;;207.10;27.23;;;1.20;99.90;;;;;;5116962;28;21409;-74
2021/11/11 03:42:50;;;;;;;207.07;24.67;;;1.10;99.90;;;;;;5115854;27;20076;-71
2021/11/11 03:45:18;;;;;;;200.23;26.33;;;1.10;99.90;;;;;;5114644;28;20123;-73
2021/11/11 03:47:47;;;;;;;237.87;27.00;;;1.30;99.90;;;;;;5114778;28;20099;-74
2021/11/11 03:50:15;;;;;;;219.67;32.30;;;1.30;99.90;;;;;;5114420;28;20082;-74
2021/11/11 03:52:43;;;;;;;260.47;30.10;;;1.20;99.90;;;;;;5115044;28;20043;-71
2021/11/11 03:55:12;;;;;;;173.17;26.47;;;1.20;99.90;;;;;;5116045;27;20558;-73
2021/11/11 03:57:40;;;;;;;185.30;27.73;;;1.10;99.90;;;;;;5118874;27;20366;-71
2021/11/11 04:00:10;;;;;;;176.57;25.40;;;1.30;99.90;;;;;;5119745;27;20055;-71
2021/11/11 04:02:37;;;;;;;222.33;28.53;;;1.30;99.90;;;;;;5118310;27;20627;-72
2021/11/11 04:05:06;;;;;;;177.80;29.13;;;1.30;99.90;;;;;;5119680;27;20770;-73
2021/11/11 04:07:34;;;;;;;127.17;25.83;;;1.30;99.90;;;;;;5118712;27;20059;-70
2021/11/11 04:10:01;;;;;;;113.40;23.73;;;1.30;99.90;;;;;;5119267;27;20079;-72
2021/11/11 04:12:28;;;;;;;128.23;25.13;;;1.30;99.90;;;;;;5118842;27;20115;-70
2021/11/11 04:14:55;;;;;;;85.83;21.50;;;1.40;99.90;;;;;;5118589;27;20616;-70
2021/11/11 04:17:22;;;;;;;109.70;25.37;;;1.50;99.90;;;;;;5117969;27;20591;-70
2021/11/11 04:19:49;;;;;;;99.30;22.30;;;1.60;99.90;;;;;;5119902;27;20043;-72
2021/11/11 04:22:19;;;;;;;86.53;21.87;;;1.50;99.90;;;;;;5119347;27;20431;-72
2021/11/11 04:24:47;;;;;;;81.70;20.40;;;1.40;99.90;;;;;;5118452;27;20088;-71
2021/11/11 04:27:18;;;;;;;79.53;21.47;;;1.50;99.90;;;;;;5118708;27;20503;-72
2021/11/11 04:29:54;;;;;;;79.43;21.60;;;1.50;99.90;;;;;;5119632;27;20240;-71
2021/11/11 04:32:21;;;;;;;88.80;23.10;;;1.50;99.90;;;;;;5119584;27;20063;-72
2021/11/11 04:34:54;;;;;;;73.00;20.67;;;1.50;99.90;;;;;;5119570;27;20055;-73
2021/11/11 04:37:27;;;;;;;107.37;21.60;;;1.50;99.90;;;;;;5118072;27;20086;-71
2021/11/11 04:49:04;;;;;;;68.33;20.97;;;1.30;99.90;;;;;;5118545;27;20039;-71
2021/11/11 04:51:50;;;;;;;132.90;23.77;;;1.40;99.90;;;;;;5118310;27;20411;-73
2021/11/11 05:03:12;;;;;;;85.60;22.27;;;1.30;99.90;;;;;;5084338;27;20471;-73
2021/11/11 05:05:40;;;;;;;134.77;24.10;;;1.30;99.90;;;;;;5066251;28;20048;-73
2021/11/11 05:08:08;;;;;;;82.53;20.70;;;1.30;99.90;;;;;;5066492;28;20047;-71
2021/11/11 05:10:35;;;;;;;90.30;22.30;;;1.30;99.90;;;;;;5065251;28;20490;-73
2021/11/11 05:13:02;;;;;;;118.73;22.57;;;1.40;99.90;;;;;;5066526;28;20084;-71
2021/11/11 05:15:29;;;;;;;98.70;22.80;;;1.40;99.90;;;;;;5063157;28;20061;-74
2021/11/11 05:17:57;;;;;;;134.07;25.07;;;1.40;99.90;;;;;;5067378;28;20072;-71
2021/11/11 05:20:24;;;;;;;137.13;25.63;;;1.50;99.90;;;;;;5065849;28;20117;-73
2021/11/11 05:22:52;;;;;;;217.90;29.30;;;1.30;99.90;;;;;;5066789;28;20098;-73
2021/11/11 05:25:20;;;;;;;235.87;30.33;;;1.10;99.90;;;;;;5064847;28;20053;-72
2021/11/11 05:27:47;;;;;;;245.87;32.57;;;1.00;99.90;;;;;;5065980;28;20048;-72
2021/11/11 05:30:16;;;;;;;121.07;24.97;;;0.90;99.90;;;;;;5066466;28;20091;-74
2021/11/11 05:32:43;;;;;;;122.13;23.27;;;1.00;99.90;;;;;;5062387;28;20044;-72
2021/11/11 05:35:12;;;;;;;164.13;28.30;;;1.20;99.90;;;;;;5064482;28;20080;-73
2021/11/11 05:37:40;;;;;;;142.37;25.90;;;1.30;99.90;;;;;;5064304;28;20410;-70
2021/11/11 05:40:10;;;;;;;322.13;39.07;;;1.20;99.90;;;;;;5067449;28;20051;-72
2021/11/11 05:42:37;;;;;;;337.40;36.10;;;1.20;99.90;;;;;;5064093;28;20088;-75
2021/11/11 05:45:06;;;;;;;222.90;29.53;;;1.10;99.90;;;;;;5067155;28;20049;-72
2021/11/11 05:47:33;;;;;;;155.10;29.77;;;1.00;99.90;;;;;;5064869;28;20068;-70
2021/11/11 05:50:00;;;;;;;85.90;22.07;;;1.20;99.90;;;;;;5064663;28;20070;-70
2021/11/11 05:52:28;;;;;;;103.60;23.07;;;1.30;99.90;;;;;;5065164;28;20178;-73
2021/11/11 05:54:55;;;;;;;96.30;20.00;;;1.40;99.90;;;;;;5059621;28;20048;-73
2021/11/11 05:57:22;;;;;;;296.27;35.20;;;1.40;99.90;;;;;;5061855;28;20053;-70
2021/11/11 05:59:49;;;;;;;167.30;24.57;;;1.10;99.90;;;;;;5062102;28;20983;-72
2021/11/11 06:02:17;;;;;;;111.43;23.00;;;1.00;99.90;;;;;;5059675;28;20084;-71
2021/11/11 06:04:45;;;;;;;141.90;24.57;;;1.10;99.90;;;;;;5061222;28;20106;-73
2021/11/11 06:07:12;;;;;;;317.63;40.00;;;1.20;99.90;;;;;;5060934;28;20099;-75
2021/11/11 06:09:41;;;;;;;146.07;23.73;;;1.20;99.90;;;;;;5060383;28;20094;-70
2021/11/11 06:12:08;;;;;;;103.57;22.33;;;0.90;99.90;;;;;;5061647;28;20505;-71
2021/11/11 06:14:35;;;;;;;97.13;21.13;;;1.10;99.90;;;;;;5046400;28;20098;-70
2021/11/11 06:17:06;;;;;;;220.00;29.47;;;1.20;99.90;;;;;;5048317;28;20087;-73
2021/11/11 06:19:33;;;;;;;258.30;32.37;;;1.10;99.90;;;;;;5045935;28;20468;-73
2021/11/11 06:22:00;;;;;;;209.20;28.10;;;1.10;99.90;;;;;;5047435;28;20075;-74
2021/11/11 06:24:27;;;;;;;217.27;27.23;;;1.00;99.90;;;;;;5045596;28;20110;-74
2021/11/11 06:26:56;;;;;;;90.43;21.90;;;1.00;99.90;;;;;;5050869;28;20052;-72
2021/11/11 06:29:23;;;;;;;229.80;30.70;;;1.10;99.90;;;;;;5051782;28;20498;-72
2021/11/11 06:31:50;;;;;;;296.90;33.50;;;1.20;99.90;;;;;;5052308;28;20586;-74
2021/11/11 06:34:18;;;;;;;171.17;25.10;;;1.20;99.90;;;;;;5051173;28;20049;-74
2021/11/11 06:36:45;;;;;;;156.07;26.50;;;1.20;99.90;;;;;;5050059;28;20064;-74
2021/11/11 06:39:12;;;;;;;141.00;24.13;;;1.20;99.90;;;;;;5052320;28;20084;-72
2021/11/11 06:41:39;;;;;;;72.43;20.37;;;1.30;99.90;;;;;;5052987;28;20110;-73
2021/11/11 06:44:07;;;;;;;101.00;21.17;;;1.30;99.90;;;;;;5053902;28;20088;-71
2021/11/11 06:46:36;;;;;;;384.47;36.73;;;1.30;99.90;;;;;;5049467;28;20051;-71
2021/11/11 06:49:03;;;;;;;183.50;26.50;;;1.20;99.90;;;;;;5048626;28;20048;-73
2021/11/11 06:51:30;;;;;;;206.83;29.10;;;1.20;99.90;;;;;;5047825;28;20056;-71
2021/11/11 06:53:57;;;;;;;136.67;23.33;;;1.10;99.90;;;;;;5049614;28;20067;-73
2021/11/11 06:56:24;;;;;;;85.07;22.87;;;1.20;99.90;;;;;;5047094;28;20084;-71
2021/11/11 06:58:51;;;;;;;186.80;24.80;;;1.20;99.90;;;;;;5047953;28;20656;-72
2021/11/11 07:01:21;;;;;;;84.90;21.10;;;1.30;99.90;;;;;;5048792;28;20049;-71
2021/11/11 07:03:48;;;;;;;116.70;22.17;;;1.30;99.90;;;;;;5045513;28;20056;-73
2021/11/11 07:06:15;;;;;;;165.93;26.70;;;1.30;99.90;;;;;;5046199;28;20049;-70
2021/11/11 07:08:43;;;;;;;137.00;22.10;;;1.30;99.90;;;;;;5048815;28;20489;-73
2021/11/11 07:11:10;;;;;;;74.57;20.30;;;1.30;99.90;;;;;;5050815;28;20278;-70
2021/11/11 07:13:37;;;;;;;152.07;22.70;;;1.50;99.90;;;;;;5051839;28;20578;-73
2021/11/11 07:16:04;;;;;;;90.80;20.03;;;1.50;99.90;;;;;;5049187;28;20057;-70
2021/11/11 07:18:32;;;;;;;94.00;20.47;;;1.50;99.90;;;;;;5051835;28;20631;-72
2021/11/11 07:20:59;;;;;;;77.77;18.70;;;1.50;99.90;;;;;;5048854;28;20051;-74
2021/11/11 07:23:27;;;;;;;76.10;19.57;;;1.50;99.90;;;;;;5051124;28;20053;-72
2021/11/11 07:25:55;;;;;;;222.43;27.47;;;1.50;99.90;;;;;;5048693;28;20131;-72
2021/11/11 07:28:23;;;;;;;116.57;21.77;;;1.40;99.90;;;;;;5050722;28;20091;-71
2021/11/11 07:30:50;;;;;;;115.67;20.40;;;1.40;99.90;;;;;;5052480;28;20539;-73
2021/11/11 07:33:18;;;;;;;161.90;22.20;;;1.50;99.90;;;;;;5051775;28;20094;-71
2021/11/11 07:35:47;;;;;;;92.00;19.40;;;1.50;99.90;;;;;;5050558;28;20484;-74
2021/11/11 07:38:16;;;;;;;133.63;25.47;;;1.60;99.90;;;;;;5050439;28;20087;-74
2021/11/11 07:40:43;;;;;;;150.77;22.97;;;1.50;99.90;;;;;;5052211;28;20044;-75
2021/11/11 07:43:10;;;;;;;332.70;32.60;;;1.40;99.90;;;;;;5049967;28;20098;-72
2021/11/11 07:45:38;;;;;;;276.70;29.33;;;1.20;99.90;;;;;;5050263;28;20045;-72
2021/11/11 07:48:05;;;;;;;210.27;27.67;;;1.40;99.90;;;;;;5049025;28;20239;-71
2021/11/11 07:50:35;;;;;;;207.50;26.17;;;1.60;99.90;;;;;;5048822;28;20049;-74
2021/11/11 07:53:08;;;;;;;199.73;26.37;;;1.60;99.90;;;;;;5050132;28;20122;-72
2021/11/11 07:55:36;;;;;;;202.00;28.00;;;1.50;99.90;;;;;;5050817;28;20130;-74
2021/11/11 07:58:03;;;;;;;246.00;27.63;;;1.50;99.90;;;;;;5051195;28;20115;-71
2021/11/11 08:00:30;;;;;;;182.67;26.63;;;1.70;99.90;;;;;;5051720;28;20056;-77
2021/11/11 08:02:57;;;;;;;159.27;25.33;;;1.60;99.90;;;;;;5048957;28;20052;-71
2021/11/11 08:05:25;;;;;;;66.33;20.63;;;1.60;99.90;;;;;;5048377;28;20044;-72
2021/11/11 08:07:52;;;;;;;81.73;20.10;;;1.70;99.90;;;;;;5046291;28;20064;-74
2021/11/11 08:10:22;;;;;;;98.93;21.63;;;1.80;99.90;;;;;;5049575;28;20098;-72
2021/11/11 08:12:49;;;;;;;95.23;23.93;;;1.80;99.90;;;;;;5052746;28;20079;-72
2021/11/11 08:15:16;;;;;;;105.30;21.90;;;1.90;99.90;;;;;;5049271;28;20056;-72
2021/11/11 08:17:44;;;;;;;125.60;22.97;;;1.90;99.90;;;;;;5049178;28;20094;-71
2021/11/11 08:20:13;;;;;;;140.83;24.30;;;2.00;99.90;;;;;;5049135;28;20052;-73
2021/11/11 08:22:41;;;;;;;192.40;28.37;;;2.10;99.90;;;;;;5050198;28;20449;-74
2021/11/11 08:25:10;;;;;;;73.23;19.50;;;1.90;99.90;;;;;;5046247;28;20048;-71
2021/11/11 08:27:40;;;;;;;74.27;20.63;;;2.10;99.90;;;;;;5050112;28;20056;-74
2021/11/11 08:30:10;;;;;;;108.53;21.77;;;2.20;99.90;;;;;;5047615;28;20070;-74
2021/11/11 08:32:37;;;;;;;72.60;19.97;;;2.30;99.90;;;;;;5047925;28;20506;-72
2021/11/11 08:35:04;;;;;;;70.07;19.70;;;2.40;99.90;;;;;;5047461;28;20056;-72
2021/11/11 08:37:31;;;;;;;87.23;22.90;;;2.30;99.90;;;;;;5043761;28;20125;-73
2021/11/11 08:39:58;;;;;;;119.83;22.63;;;2.40;99.90;;;;;;5046295;28;20551;-74
2021/11/11 08:42:25;;;;;;;140.50;23.20;;;2.30;99.90;;;;;;5046882;28;20053;-74
2021/11/11 08:44:54;;;;;;;63.00;19.73;;;2.40;99.90;;;;;;5047509;28;20059;-73
2021/11/11 08:47:22;;;;;;;76.97;20.27;;;2.50;99.90;;;;;;5042749;28;20048;-73
2021/11/11 08:49:52;;;;;;;60.47;20.70;;;2.70;99.90;;;;;;5046694;28;20060;-71
2021/11/11 08:52:20;;;;;;;84.70;21.37;;;2.70;99.90;;;;;;5048566;28;20152;-71
2021/11/11 08:54:48;;;;;;;69.73;20.43;;;2.70;99.90;;;;;;5044984;28;20057;-71
2021/11/11 08:57:15;;;;;;;71.67;20.33;;;2.70;99.90;;;;;;5043890;28;20526;-73
2021/11/11 08:59:43;;;;;;;165.43;24.20;;;2.70;99.90;;;;;;5044572;28;20060;-73
2021/11/11 09:02:11;;;;;;;129.53;23.03;;;2.40;99.90;;;;;;5045636;28;20390;-71
2021/11/11 09:04:39;;;;;;;58.37;18.70;;;2.40;99.90;;;;;;5045177;28;20111;-72
2021/11/11 09:07:06;;;;;;;156.47;22.43;;;2.80;99.90;;;;;;5044835;28;20052;-72
2021/11/11 09:09:33;;;;;;;95.67;18.70;;;2.80;99.90;;;;;;5046886;28;20120;-71
2021/11/11 09:12:00;;;;;;;56.87;18.60;;;2.80;99.90;;;;;;5046602;28;20869;-72
2021/11/11 09:14:28;;;;;;;77.77;19.13;;;2.80;99.90;;;;;;5045775;28;20052;-71
2021/11/11 09:16:54;;;;;;;53.87;18.37;;;2.80;99.90;;;;;;5045875;28;20055;-73
2021/11/11 09:19:23;;;;;;;43.20;19.73;;;3.00;99.90;;;;;;5046248;28;20048;-72
2021/11/11 09:21:50;;;;;;;46.07;20.20;;;3.10;99.90;;;;;;5046637;28;20052;-72
2021/11/11 09:24:17;;;;;;;45.63;19.47;;;3.00;99.90;;;;;;5043142;28;20110;-74
2021/11/11 09:26:44;;;;;;;53.93;20.03;;;3.10;99.90;;;;;;5045402;28;20059;-72
2021/11/11 09:29:11;;;;;;;165.10;24.33;;;3.20;99.90;;;;;;5045058;28;20080;-74
2021/11/11 09:31:39;;;;;;;66.43;20.10;;;2.90;99.90;;;;;;5044362;28;20048;-74
2021/11/11 09:34:07;;;;;;;100.17;20.50;;;2.80;99.90;;;;;;5048817;28;20053;-73
2021/11/11 09:36:35;;;;;;;82.53;20.10;;;2.80;99.90;;;;;;5047422;28;20052;-71
2021/11/11 09:39:06;;;;;;;71.53;19.50;;;2.70;99.90;;;;;;5045877;28;20084;-73
2021/11/11 09:41:34;;;;;;;78.77;21.90;;;2.70;99.90;;;;;;5045444;28;20071;-71
2021/11/11 09:44:01;;;;;;;60.57;21.53;;;2.90;99.90;;;;;;5045198;28;20464;-73
2021/11/11 09:46:29;;;;;;;48.73;21.33;;;3.20;99.90;;;;;;5045067;28;20103;-73
2021/11/11 09:48:56;;;;;;;53.43;23.30;;;3.20;99.90;;;;;;5049540;28;20080;-73
2021/11/11 09:51:24;;;;;;;50.83;24.23;;;3.10;99.90;;;;;;5049759;28;20563;-71
2021/11/11 09:54:00;;;;;;;64.93;26.40;;;3.20;99.90;;;;;;5044008;28;20337;-74
2021/11/11 09:59:12;;;;;;;53.80;24.43;;;3.80;99.90;;;;;;5044159;28;20421;-71
2021/11/11 10:01:42;;;;;;;55.83;26.27;;;4.00;99.90;;;;;;5045412;28;20080;-71
2021/11/11 10:04:09;;;;;;;55.43;26.53;;;3.90;99.90;;;;;;5045903;28;20049;-71
2021/11/11 10:06:36;;;;;;;57.90;26.00;;;4.20;99.90;;;;;;5044431;28;20193;-73
2021/11/11 10:09:13;;;;;;;67.03;26.23;;;4.30;99.90;;;;;;5047016;28;20049;-72
2021/11/11 10:11:49;;;;;;;59.63;28.20;;;4.00;99.90;;;;;;5046966;28;20493;-73
2021/11/11 10:14:19;;;;;;;57.22;27.90;;;4.40;99.90;;;;;;5046380;28;20143;-72
2021/11/11 10:16:48;;;;;;;52.83;25.47;;;4.60;99.90;;;;;;5045139;28;20060;-74
2021/11/11 10:19:16;;;;;;;57.67;26.02;;;4.90;99.90;;;;;;5042521;28;20083;-72
2021/11/11 10:21:46;;;;;;;53.90;25.55;;;4.70;99.90;;;;;;5046115;28;20632;-74
2021/11/11 10:24:26;;;;;;;47.30;22.88;;;4.60;99.90;;;;;;5043929;28;20106;-74
2021/11/11 10:27:08;;;;;;;45.13;22.27;;;4.60;99.90;;;;;;5045023;28;20105;-74
2021/11/11 10:29:40;;;;;;;45.85;20.50;;;5.10;99.90;;;;;;5047206;28;20110;-73
2021/11/11 10:32:14;;;;;;;39.90;21.25;;;5.50;99.90;;;;;;5044084;28;20057;-71
2021/11/11 10:34:53;;;;;;;41.20;21.42;;;5.90;99.90;;;;;;5043045;28;20080;-73
2021/11/11 10:37:22;;;;;;;35.05;20.20;;;5.70;99.90;;;;;;5046968;28;20667;-72
2021/11/11 10:39:56;;;;;;;38.20;20.58;;;5.60;99.90;;;;;;5042747;28;21578;-74
2021/11/11 10:42:29;;;;;;;36.90;20.50;;;5.60;99.90;;;;;;5043779;28;20077;-73
2021/11/11 10:44:57;;;;;;;42.13;23.20;;;5.40;99.90;;;;;;5044521;28;20064;-74
2021/11/11 10:47:28;;;;;;;45.00;24.35;;;5.60;99.90;;;;;;5043657;28;20067;-72
2021/11/11 10:49:55;;;;;;;54.22;25.77;;;5.60;99.90;;;;;;5044769;28;20105;-74
2021/11/11 10:52:35;;;;;;;52.53;26.40;;;5.50;99.90;;;;;;5042926;28;20048;-71
2021/11/11 10:55:22;;;;;;;51.30;26.02;;;5.40;99.90;;;;;;5042244;28;20044;-71
2021/11/11 10:57:59;;;;;;;57.00;27.55;;;5.40;99.90;;;;;;5042068;28;20498;-71
2021/11/11 11:00:50;;;;;;;49.97;25.83;;;5.30;99.90;;;;;;5043893;28;20084;-72
2021/11/11 11:03:19;;;;;;;56.65;26.77;;;5.40;99.90;;;;;;5045407;28;20048;-71
2021/11/11 11:05:57;;;;;;;49.78;27.02;;;5.10;99.90;;;;;;5041860;28;20061;-73
2021/11/11 11:08:27;;;;;;;52.13;26.77;;;5.10;99.90;;;;;;5043947;28;20110;-71
2021/11/11 11:10:58;;;;;;;52.47;24.85;;;5.00;99.90;;;;;;5044656;28;20536;-71
2021/11/11 11:13:29;;;;;;;55.17;25.17;;;5.10;99.90;;;;;;5043502;28;20056;-73
2021/11/11 11:15:58;;;;;;;48.35;24.13;;;5.20;99.90;;;;;;5043771;28;20094;-73
2021/11/11 11:18:30;;;;;;;57.45;26.25;;;5.20;99.90;;;;;;5045881;28;20048;-72
2021/11/11 11:21:01;;;;;;;81.38;32.60;;;5.20;99.90;;;;;;5041775;28;20293;-72
2021/11/11 11:23:32;;;;;;;85.35;33.83;;;5.30;99.90;;;;;;5046430;28;20127;-74
2021/11/11 11:26:10;;;;;;;86.57;32.60;;;5.00;99.90;;;;;;5046988;28;20395;-70
2021/11/11 11:28:48;;;;;;;75.53;32.63;;;5.00;99.90;;;;;;5046781;28;20501;-70
2021/11/11 11:31:25;;;;;;;82.13;33.60;;;5.10;99.90;;;;;;5048207;28;20460;-73
2021/11/11 11:33:53;;;;;;;91.18;35.17;;;5.00;99.90;;;;;;5046065;28;20049;-73
2021/11/11 11:36:33;;;;;;;75.18;32.95;;;5.20;99.90;;;;;;5044768;28;20564;-72
2021/11/11 11:39:00;;;;;;;82.15;31.85;;;5.30;99.90;;;;;;5047991;28;20076;-74
2021/11/11 11:41:35;;;;;;;83.78;33.25;;;5.10;99.90;;;;;;5045278;28;20056;-71
2021/11/11 11:44:21;;;;;;;87.75;35.20;;;5.70;99.90;;;;;;5045999;28;20198;-71
2021/11/11 11:47:07;;;;;;;82.90;35.15;;;5.90;99.90;;;;;;5047950;28;20053;-73
2021/11/11 11:49:35;;;;;;;81.95;35.05;;;5.70;99.90;;;;;;5047139;28;20056;-71
2021/11/11 11:52:05;;;;;;;78.65;34.83;;;5.80;99.90;;;;;;5047280;28;20063;-70
2021/11/11 11:54:39;;;;;;;69.38;31.20;;;5.50;99.90;;;;;;5044102;28;20497;-73
2021/11/11 11:57:14;;;;;;;98.32;37.90;;;5.00;99.90;;;;;;5045062;28;20566;-73
2021/11/11 11:59:46;;;;;;;105.18;39.53;;;5.40;99.90;;;;;;5044348;28;20059;-71
2021/11/11 12:02:34;;;;;;;101.28;40.45;;;5.60;99.90;;;;;;5046046;28;20437;-71
2021/11/11 12:10:44;;;;;;;98.35;36.92;;;5.50;99.90;;;;;;5038309;28;20496;-74
2021/11/11 12:13:41;;;;;;;94.00;37.08;;;5.30;99.90;;;;;;5041734;28;20143;-73
2021/11/11 12:38:41;;;;;;;79.78;35.72;;;5.50;99.90;;;;;;5040777;28;20074;-71
2021/11/11 12:41:10;;;;;;;88.75;36.30;;;5.70;99.90;;;;;;5042019;28;20061;-71
2021/11/11 12:43:37;;;;;;;84.88;35.42;;;5.50;99.90;;;;;;5042281;28;20090;-69
2021/11/11 12:46:07;;;;;;;84.60;36.72;;;5.70;99.90;;;;;;5041209;28;20056;-69
2021/11/11 12:48:34;;;;;;;79.78;34.60;;;5.60;99.90;;;;;;5039855;28;20106;-70
2021/11/11 12:51:05;;;;;;;93.97;37.65;;;5.50;99.90;;;;;;5042450;28;20075;-69
2021/11/11 12:53:47;;;;;;;84.25;34.55;;;5.50;99.90;;;;;;5040309;28;20088;-69
2021/11/11 12:56:30;;;;;;;84.55;35.20;;;5.40;99.90;;;;;;5040082;28;20057;-69
2021/11/11 12:59:15;;;;;;;74.90;33.60;;;5.30;99.90;;;;;;5041742;28;20056;-69
2021/11/11 13:01:58;;;;;;;77.57;33.53;;;5.80;99.90;;;;;;5044083;28;20146;-69
2021/11/11 13:04:26;;;;;;;79.68;33.85;;;6.00;99.90;;;;;;5039847;28;20053;-69
2021/11/11 13:06:55;;;;;;;75.95;33.08;;;6.10;99.90;;;;;;5041502;28;20061;-68
2021/11/11 13:09:31;;;;;;;72.78;33.05;;;6.30;99.90;;;;;;5042553;28;20059;-69
2021/11/11 13:12:12;;;;;;;75.45;33.47;;;6.50;99.90;;;;;;5041739;28;20079;-69
2021/11/11 13:14:56;;;;;;;74.60;33.55;;;6.30;99.90;;;;;;5042349;28;20119;-68
2021/11/11 13:17:26;;;;;;;72.80;33.83;;;6.60;99.90;;;;;;5039473;28;20201;-68
2021/11/11 13:19:59;;;;;;;79.03;34.25;;;6.70;99.90;;;;;;5042755;28;20106;-68
2021/11/11 13:22:39;;;;;;;68.97;32.17;;;6.90;99.90;;;;;;5040236;28;20099;-68
2021/11/11 13:25:24;;;;;;;72.45;32.80;;;6.80;99.90;;;;;;5045786;28;20053;-69
2021/11/11 13:59:17;;;;;;;65.40;31.90;;;8.80;99.90;;;;;;5044040;28;20532;-68
2021/11/11 14:02:47;;;;;;;68.25;31.60;;;8.80;99.90;;;;;;5044412;28;21064;-67